createdAt,value
2019-02-17T00:00:38.668Z,1.21
2019-02-17T00:01:38.940Z,1.24
2019-02-17T00:02:38.546Z,1.16
2019-02-17T00:03:38.671Z,1.16
2019-02-17T00:58:11.841Z,0.74
2019-02-17T00:59:10.209Z,0.68
2019-02-17T01:00:07.496Z,0.67
2019-02-17T01:01:07.307Z,0.63
2019-02-17T01:51:31.730Z,0.19
2019-02-17T01:52:31.665Z,0.15
2019-02-17T01:53:31.100Z,0.05
2019-02-17T01:54:31.109Z,0.15
2019-02-17T01:55:34.048Z,0.04
2019-02-17T01:56:31.026Z,0.19
2019-02-17T01:57:30.993Z,0.22
2019-02-17T01:58:31.115Z,0.12
2019-02-17T01:59:31.125Z,0.20
2019-02-17T02:00:33.481Z,0.19
2019-02-17T02:01:33.531Z,0.16
2019-02-17T02:35:42.939Z,-0.09
2019-02-17T02:36:33.211Z,-0.13
2019-02-17T02:47:23.606Z,-0.17
2019-02-17T02:48:23.146Z,-0.17
2019-02-17T02:49:22.754Z,-0.13
2019-02-17T02:50:22.674Z,-0.19
2019-02-17T02:51:23.562Z,-0.14
2019-02-17T02:52:23.187Z,-0.21
2019-02-17T02:53:23.636Z,-0.24
2019-02-17T02:54:22.539Z,-0.20
2019-02-17T02:55:22.664Z,-0.19
2019-02-17T02:56:22.527Z,-0.20
2019-02-17T03:43:17.041Z,-0.45
2019-02-17T03:43:52.135Z,-0.41
2019-02-17T03:49:33.355Z,-0.50
2019-02-17T03:50:19.148Z,-0.53
2019-02-17T03:51:18.989Z,-0.58
2019-02-17T03:52:19.886Z,-0.52
2019-02-17T05:06:47.021Z,-0.78
2019-02-17T05:07:46.529Z,-0.76
2019-02-17T05:08:46.194Z,-0.90
2019-02-17T05:09:46.141Z,-0.80
2019-02-17T05:10:57.721Z,-0.73
2019-02-17T05:11:46.133Z,-0.78
2019-02-17T05:12:46.714Z,-0.83
2019-02-17T05:13:46.008Z,-0.76
2019-02-17T05:14:46.668Z,-0.80
2019-02-17T05:15:46.079Z,-0.76
2019-02-17T05:16:46.016Z,-0.83
2019-02-17T05:17:45.962Z,-0.89
2019-02-17T05:18:47.741Z,-0.71
2019-02-17T05:19:45.937Z,-0.83
2019-02-17T05:20:46.353Z,-0.78
2019-02-17T05:21:46.860Z,-0.78
2019-02-17T05:22:45.899Z,-0.83
2019-02-17T05:23:46.686Z,-0.90
2019-02-17T05:24:46.722Z,-0.83
2019-02-17T05:25:45.863Z,-0.90
2019-02-17T05:26:45.974Z,-0.90
2019-02-17T05:27:45.816Z,-0.90
2019-02-17T05:28:45.867Z,-0.93
2019-02-17T05:29:45.900Z,-0.85
2019-02-17T05:30:52.892Z,-0.83
2019-02-17T05:31:46.803Z,-0.92
2019-02-17T05:32:45.736Z,-0.85
2019-02-17T05:33:45.704Z,-0.92
2019-02-17T05:34:45.748Z,-0.86
2019-02-17T05:35:45.771Z,-0.92
2019-02-17T05:36:45.712Z,-0.90
2019-02-17T05:37:45.613Z,-0.92
2019-02-17T05:38:45.602Z,-0.90
2019-02-17T05:39:45.666Z,-0.90
2019-02-17T05:40:45.714Z,-0.93
2019-02-17T05:41:45.597Z,-0.93
2019-02-17T05:42:45.760Z,-0.97
2019-02-17T05:43:45.762Z,-0.90
2019-02-17T05:44:45.551Z,-0.97
2019-02-17T05:45:45.612Z,-0.96
2019-02-17T05:46:45.660Z,-0.99
2019-02-17T05:47:45.510Z,-1.02
2019-02-17T05:48:45.543Z,-0.92
2019-02-17T05:49:46.095Z,-0.99
2019-02-17T05:50:45.576Z,-1.00
2019-02-17T05:51:45.608Z,-1.07
2019-02-17T05:52:45.513Z,-1.08
2019-02-17T05:53:45.570Z,-1.10
2019-02-17T05:54:45.630Z,-1.13
2019-02-17T05:55:45.482Z,-1.15
2019-02-17T05:56:45.580Z,-1.15
2019-02-17T06:27:07.235Z,-1.13
2019-02-17T06:28:06.843Z,-1.15
2019-02-17T06:29:19.360Z,-1.14
2019-02-17T06:32:28.943Z,-1.17
2019-02-17T06:36:01.540Z,-1.11
2019-02-17T06:45:00.541Z,-1.03
2019-02-17T06:57:35.568Z,-1.07
2019-02-17T06:58:35.175Z,-1.07
2019-02-17T06:59:35.117Z,-1.05
2019-02-17T07:00:35.577Z,-0.99
2019-02-17T07:01:35.232Z,-0.99
2019-02-17T07:02:35.000Z,-1.02
2019-02-17T07:03:34.983Z,-1.00
2019-02-17T07:04:36.441Z,-1.05
2019-02-17T07:05:35.031Z,-1.02
2019-02-17T07:06:34.923Z,-1.00
2019-02-17T07:07:35.457Z,-0.97
2019-02-17T07:08:34.893Z,-0.97
2019-02-17T07:09:35.175Z,-0.99
2019-02-17T07:10:34.966Z,-0.96
2019-02-17T07:11:34.861Z,-0.97
2019-02-17T07:12:34.893Z,-0.99
2019-02-17T07:13:34.827Z,-0.96
2019-02-17T07:14:34.830Z,-0.92
2019-02-17T07:15:34.882Z,-0.85
2019-02-17T07:16:34.829Z,-0.83
2019-02-17T07:17:34.983Z,-0.76
2019-02-17T07:18:34.856Z,-0.86
2019-02-17T07:19:48.547Z,-0.83
2019-02-17T07:20:35.305Z,-0.73
2019-02-17T07:21:34.896Z,-0.74
2019-02-17T07:22:34.877Z,-0.68
2019-02-17T07:23:34.738Z,-0.77
2019-02-17T07:24:34.781Z,-0.73
2019-02-17T07:25:34.929Z,-0.63
2019-02-17T07:26:34.939Z,-0.59
2019-02-17T07:27:34.769Z,-0.67
2019-02-17T07:34:59.895Z,-0.45
2019-02-17T07:35:56.885Z,-0.52
2019-02-17T07:36:56.983Z,-0.39
2019-02-17T07:37:56.699Z,-0.37
2019-02-17T07:38:56.627Z,-0.41
2019-02-17T07:39:56.631Z,-0.39
2019-02-17T07:40:56.655Z,-0.35
2019-02-17T07:41:56.727Z,-0.34
2019-02-17T07:42:56.684Z,-0.30
2019-02-17T07:43:56.973Z,-0.27
2019-02-17T07:44:56.586Z,-0.21
2019-02-17T07:45:56.546Z,-0.19
2019-02-17T08:13:54.084Z,1.26
2019-02-17T08:14:54.376Z,1.32
2019-02-17T08:17:55.195Z,1.54
2019-02-17T08:20:23.272Z,1.81
2019-02-17T08:21:22.751Z,2.01
2019-02-17T08:22:22.695Z,2.04
2019-02-17T08:23:22.739Z,2.12
2019-02-17T08:24:22.627Z,2.19
2019-02-17T08:25:22.651Z,2.36
2019-02-17T08:28:48.431Z,2.79
2019-02-17T08:29:47.810Z,2.84
2019-02-17T08:30:47.769Z,3.05
2019-02-17T08:31:55.914Z,3.22
2019-02-17T08:32:49.685Z,3.25
2019-02-17T08:33:47.883Z,3.45
2019-02-17T08:34:47.749Z,3.50
2019-02-17T08:35:47.626Z,3.57
2019-02-17T08:36:47.603Z,3.68
2019-02-17T08:37:47.686Z,3.81
2019-02-17T08:38:47.971Z,3.90
2019-02-17T08:48:27.467Z,4.94
2019-02-17T08:49:27.119Z,5.05
2019-02-17T08:50:27.115Z,5.19
2019-02-17T08:51:27.079Z,5.22
2019-02-17T08:52:26.897Z,5.27
2019-02-17T08:53:27.091Z,5.40
2019-02-17T08:54:26.929Z,5.42
2019-02-17T08:55:26.951Z,5.48
2019-02-17T08:56:27.192Z,5.58
2019-02-17T08:57:26.839Z,5.56
2019-02-17T08:58:27.735Z,5.65
2019-02-17T08:59:26.859Z,5.65
2019-02-17T09:00:27.020Z,5.83
2019-02-17T09:01:26.895Z,5.98
2019-02-17T09:02:26.887Z,6.01
2019-02-17T09:03:27.654Z,6.17
2019-02-17T09:04:26.754Z,6.24
2019-02-17T09:05:26.760Z,6.39
2019-02-17T09:06:26.811Z,6.40
2019-02-17T09:07:26.794Z,6.40
2019-02-17T09:08:26.909Z,6.61
2019-02-17T09:09:26.755Z,6.60
2019-02-17T09:12:05.866Z,6.91
2019-02-17T09:13:06.070Z,6.94
2019-02-17T09:14:05.481Z,6.99
2019-02-17T09:15:05.565Z,7.05
2019-02-17T09:16:05.280Z,7.12
2019-02-17T09:17:05.306Z,7.27
2019-02-17T09:18:05.306Z,7.36
2019-02-17T09:19:05.223Z,7.47
2019-02-17T09:20:05.239Z,7.62
2019-02-17T09:21:05.343Z,7.69
2019-02-17T09:22:05.245Z,7.88
2019-02-17T09:23:05.208Z,7.91
2019-02-17T09:24:05.748Z,7.95
2019-02-17T09:25:05.164Z,8.12
2019-02-17T09:26:05.200Z,8.21
2019-02-17T09:27:05.741Z,8.32
2019-02-17T09:28:05.175Z,8.40
2019-02-17T09:29:05.138Z,8.52
2019-02-17T09:30:06.775Z,8.64
2019-02-17T09:31:05.189Z,8.67
2019-02-17T09:32:05.110Z,8.79
2019-02-17T09:33:05.070Z,8.88
2019-02-17T09:34:05.057Z,9.06
2019-02-17T09:35:05.039Z,9.15
2019-02-17T09:36:05.066Z,9.26
2019-02-17T09:37:05.042Z,9.32
2019-02-17T09:38:05.046Z,9.38
2019-02-17T09:39:05.053Z,9.32
2019-02-17T09:40:05.712Z,9.35
2019-02-17T09:41:05.048Z,9.44
2019-02-17T09:42:05.013Z,9.53
2019-02-17T09:43:04.981Z,9.55
2019-02-17T09:44:04.996Z,9.50
2019-02-17T09:45:05.708Z,9.56
2019-02-17T09:46:04.982Z,9.65
2019-02-17T09:47:05.002Z,9.67
2019-02-17T09:48:04.998Z,9.77
2019-02-17T09:49:05.066Z,9.60
2019-02-17T09:50:05.080Z,9.75
2019-02-17T09:51:04.913Z,9.80
2019-02-17T09:52:05.813Z,9.98
2019-02-17T09:53:04.904Z,9.85
2019-02-17T09:54:04.856Z,9.91
2019-02-17T09:55:05.704Z,9.93
2019-02-17T09:56:04.815Z,9.89
2019-02-17T09:57:04.808Z,9.95
2019-02-17T09:58:04.847Z,9.98
2019-02-17T09:59:04.811Z,9.95
2019-02-17T10:00:04.812Z,10.02
2019-02-17T10:01:04.860Z,9.95
2019-02-17T10:02:04.811Z,10.04
2019-02-17T10:03:04.730Z,9.99
2019-02-17T10:04:04.797Z,10.07
2019-02-17T10:05:04.790Z,10.14
2019-02-17T10:06:04.785Z,10.09
2019-02-17T10:07:05.702Z,10.04
2019-02-17T10:08:04.677Z,10.11
2019-02-17T10:09:04.677Z,10.17
2019-02-17T10:10:04.654Z,10.18
2019-02-17T10:11:04.667Z,10.11
2019-02-17T10:12:04.646Z,10.17
2019-02-17T10:13:04.666Z,10.26
2019-02-17T10:14:04.604Z,10.25
2019-02-17T10:15:04.608Z,10.28
2019-02-17T10:16:04.986Z,10.22
2019-02-17T10:19:31.820Z,10.26
2019-02-17T10:20:31.831Z,10.26
2019-02-17T10:24:57.609Z,10.35
2019-02-17T10:27:08.467Z,10.42
2019-02-17T10:28:08.452Z,10.42
2019-02-17T10:29:08.403Z,10.36
2019-02-17T10:30:08.163Z,10.55
2019-02-17T10:31:08.570Z,10.51
2019-02-17T10:32:08.135Z,10.51
2019-02-17T10:59:41.272Z,11.09
2019-02-17T11:02:16.735Z,11.11
2019-02-17T11:03:16.864Z,11.19
2019-02-17T11:11:20.730Z,11.33
2019-02-17T11:13:25.103Z,11.35
2019-02-17T11:14:25.562Z,11.44
2019-02-17T11:15:24.927Z,11.41
2019-02-17T11:16:25.638Z,11.39
2019-02-17T11:17:24.688Z,11.39
2019-02-17T11:18:24.512Z,11.44
2019-02-17T11:19:24.643Z,11.38
2019-02-17T11:20:31.373Z,11.39
2019-02-17T11:21:24.626Z,11.45
2019-02-17T11:24:06.979Z,11.49
2019-02-17T11:25:05.608Z,11.54
2019-02-17T11:26:15.106Z,11.49
2019-02-17T11:32:09.678Z,11.77
2019-02-17T11:33:05.125Z,11.78
2019-02-17T11:34:05.834Z,11.88
2019-02-17T11:36:25.297Z,11.94
2019-02-17T11:37:24.994Z,11.94
2019-02-17T11:38:25.370Z,11.88
2019-02-17T11:40:57.808Z,11.94
2019-02-17T11:41:57.392Z,12.01
2019-02-17T11:44:27.089Z,12.05
2019-02-17T11:52:59.560Z,12.34
2019-02-17T11:53:59.344Z,12.46
2019-02-17T11:54:59.193Z,12.43
2019-02-17T11:55:59.165Z,12.51
2019-02-17T11:56:58.999Z,12.52
2019-02-17T11:57:59.031Z,12.48
2019-02-17T12:00:21.264Z,12.52
2019-02-17T12:09:41.156Z,12.56
2019-02-17T12:12:30.734Z,12.55
2019-02-17T13:39:51.226Z,15.98
2019-02-17T13:54:49.904Z,16.80
2019-02-17T13:55:58.855Z,16.88
2019-02-17T15:28:55.226Z,19.65
2019-02-17T15:31:34.870Z,19.68
2019-02-17T15:32:34.457Z,19.70
2019-02-17T15:33:34.513Z,19.75
2019-02-17T15:51:40.969Z,19.07
2019-02-17T15:55:14.973Z,18.96
2019-02-17T15:56:15.081Z,18.91
2019-02-17T15:57:24.441Z,18.94
2019-02-17T15:58:14.686Z,18.84
2019-02-17T15:59:14.548Z,18.84
2019-02-17T16:00:14.438Z,18.75
2019-02-17T16:01:14.629Z,18.71
2019-02-17T16:03:53.861Z,18.59
2019-02-17T16:04:53.910Z,18.53
2019-02-17T16:05:54.485Z,18.49
2019-02-17T16:06:53.225Z,18.50
2019-02-17T16:07:53.748Z,18.49
2019-02-17T16:08:53.463Z,18.42
2019-02-17T16:09:53.398Z,18.31
2019-02-17T16:11:02.236Z,18.21
2019-02-17T16:15:06.860Z,18.05
2019-02-17T16:16:09.213Z,17.87
2019-02-17T16:17:09.144Z,17.73
2019-02-17T16:31:56.784Z,16.27
2019-02-17T16:53:07.113Z,14.09
2019-02-17T17:20:30.918Z,11.57
2019-02-17T18:06:57.117Z,8.73
2019-02-17T18:07:56.334Z,8.68
2019-02-17T18:08:56.847Z,8.60
2019-02-17T18:09:56.234Z,8.49
2019-02-17T18:11:00.750Z,8.61
2019-02-17T18:11:55.788Z,8.50
2019-02-17T18:12:55.738Z,8.55
2019-02-17T18:13:55.910Z,8.46
2019-02-17T18:40:45.077Z,7.39
2019-02-17T19:08:51.913Z,6.54
2019-02-17T19:09:51.165Z,6.50
2019-02-17T19:24:37.870Z,5.98
2019-02-17T19:25:37.404Z,5.96
2019-02-17T19:35:09.383Z,5.62
2019-02-17T19:36:08.333Z,5.59
2019-02-17T19:37:08.052Z,5.60
2019-02-17T19:38:08.098Z,5.52
2019-02-17T19:40:35.014Z,5.41
2019-02-17T19:41:34.909Z,5.49
2019-02-17T19:47:24.002Z,5.33
2019-02-17T19:49:46.940Z,5.22
2019-02-17T19:52:07.954Z,5.11
2019-02-17T19:55:17.155Z,5.05
2019-02-17T19:56:16.769Z,5.08
2019-02-17T19:57:16.838Z,4.94
2019-02-17T19:58:17.996Z,5.02
2019-02-17T19:59:16.628Z,4.99
2019-02-17T20:00:16.656Z,4.99
2019-02-17T20:01:16.728Z,4.91
2019-02-17T21:13:10.934Z,3.57
2019-02-17T21:14:08.766Z,3.57
2019-02-17T21:16:40.702Z,3.54
2019-02-17T21:17:40.053Z,3.56
2019-02-17T21:18:40.061Z,3.53
2019-02-17T21:19:40.140Z,3.53
2019-02-17T23:45:14.672Z,1.44
2019-02-17T23:46:15.020Z,1.47
2019-02-17T23:47:16.791Z,1.47
2019-02-17T23:48:13.878Z,1.42
2019-02-17T23:49:13.765Z,1.46
2019-02-17T23:50:13.851Z,1.35
2019-02-17T23:51:13.917Z,1.39
2019-02-17T23:52:13.744Z,1.39
2019-02-17T23:53:13.961Z,1.35
2019-02-17T23:54:13.675Z,1.36
2019-02-17T23:55:14.654Z,1.36
2019-02-17T23:56:13.802Z,1.35
2019-02-17T23:57:13.689Z,1.29
2019-02-17T23:58:13.662Z,1.24
2019-02-17T23:59:15.348Z,1.31
